Time;durP1;ratioP1;P1;durP2;ratioP2;P2;SDS_P1;SDS_P2;PMS_P1;PMS_P2;Temp;Humidity;BMP_temperature;BMP_pressure;BME280_temperature;BME280_humidity;BME280_pressure;Samples;Min_cycle;Max_cycle;Signal;HPM_P1;HPM_P2
2021/09/26 00:00:59;;;;;;;0.32;0.30;;;;;;;13.58;100.00;101186.09;5112295;28;20047;-79
2021/09/26 00:03:32;;;;;;;0.30;0.30;;;;;;;13.54;100.00;101190.53;5108579;28;20044;-79
2021/09/26 00:06:07;;;;;;;0.30;0.30;;;;;;;13.58;100.00;101198.97;5111984;28;20055;-79
2021/09/26 00:08:40;;;;;;;0.30;0.30;;;;;;;13.51;100.00;101193.84;5101381;28;20040;-79
2021/09/26 00:11:14;;;;;;;0.20;0.20;;;;;;;13.55;100.00;101188.63;5096143;28;20055;-79
2021/09/26 00:13:47;;;;;;;0.30;0.30;;;;;;;13.57;100.00;101197.34;5091874;28;20047;-78
2021/09/26 00:16:16;;;;;;;0.30;0.30;;;;;;;13.55;100.00;101200.38;5099997;28;20066;-78
2021/09/26 00:18:49;;;;;;;0.20;0.20;;;;;;;13.56;100.00;101199.28;5113145;28;20051;-79
2021/09/26 00:21:24;;;;;;;0.25;0.25;;;;;;;13.61;100.00;101201.94;5098259;28;20052;-78
2021/09/26 00:23:53;;;;;;;0.40;0.40;;;;;;;13.67;100.00;101204.63;5094470;28;20051;-80
2021/09/26 00:26:26;;;;;;;0.30;0.20;;;;;;;13.72;100.00;101193.66;5103578;28;20047;-78
2021/09/26 00:29:00;;;;;;;0.40;0.40;;;;;;;13.77;100.00;101205.34;5095653;28;20048;-80
2021/09/26 00:31:33;;;;;;;0.20;0.20;;;;;;;13.83;100.00;101197.09;5111019;28;20438;-79
2021/09/26 00:34:06;;;;;;;0.38;0.30;;;;;;;13.88;100.00;101200.59;5105093;28;20488;-79
2021/09/26 00:36:40;;;;;;;0.20;0.20;;;;;;;13.90;100.00;101200.31;5104935;28;20047;-80
2021/09/26 00:39:14;;;;;;;0.45;0.30;;;;;;;13.93;100.00;101205.19;5101738;28;20113;-79
2021/09/26 00:41:48;;;;;;;0.20;0.20;;;;;;;13.89;100.00;101179.53;5102813;28;20051;-78
2021/09/26 00:44:17;;;;;;;0.30;0.30;;;;;;;14.01;100.00;101201.03;5113027;28;20157;-79
2021/09/26 00:46:51;;;;;;;0.55;0.30;;;;;;;14.01;100.00;101190.88;5102367;28;20052;-79
2021/09/26 00:49:25;;;;;;;0.20;0.20;;;;;;;14.04;100.00;101198.50;5093473;28;20039;-79
2021/09/26 00:52:00;;;;;;;1.10;0.20;;;;;;;14.06;100.00;101190.03;5101834;28;20060;-78
2021/09/26 00:54:34;;;;;;;0.30;0.30;;;;;;;14.04;100.00;101189.50;5102338;28;20078;-79
2021/09/26 00:57:07;;;;;;;0.25;0.25;;;;;;;14.04;100.00;101194.97;5094609;28;20032;-80
2021/09/26 00:59:41;;;;;;;0.20;0.20;;;;;;;14.03;100.00;101183.22;5099391;28;20070;-79
2021/09/26 01:02:14;;;;;;;0.30;0.30;;;;;;;14.04;100.00;101184.00;5098681;28;20048;-79
2021/09/26 01:04:47;;;;;;;0.28;0.28;;;;;;;14.04;100.00;101184.00;5107861;28;20032;-79
2021/09/26 01:07:34;;;;;;;0.28;0.28;;;;;;;14.00;100.00;101178.28;5103374;28;20050;-79
2021/09/26 01:10:13;;;;;;;0.30;0.25;;;;;;;14.04;100.00;101186.75;5111495;28;20031;-81
2021/09/26 01:12:51;;;;;;;0.57;0.30;;;;;;;14.04;100.00;101190.28;5095042;28;20044;-79
2021/09/26 01:15:42;;;;;;;0.28;0.28;;;;;;;14.06;100.00;101199.03;5094257;28;20043;-79
2021/09/26 01:18:20;;;;;;;0.30;0.30;;;;;;;14.05;100.00;101194.66;5097443;28;20046;-79
2021/09/26 01:21:00;;;;;;;0.20;0.20;;;;;;;14.05;100.00;101191.94;5097567;28;20048;-78
2021/09/26 01:24:14;;;;;;;0.20;0.20;;;;;;;14.05;100.00;101186.47;5097661;28;20058;-79
2021/09/26 01:27:02;;;;;;;0.30;0.30;;;;;;;14.06;100.00;101187.28;5096392;28;20075;-79
2021/09/26 01:30:14;;;;;;;0.30;0.30;;;;;;;14.04;100.00;101184.81;5092585;28;20043;-79
2021/09/26 01:32:57;;;;;;;0.22;0.22;;;;;;;14.06;100.00;101182.63;5099920;28;20047;-78
2021/09/26 01:35:27;;;;;;;0.45;0.30;;;;;;;14.06;100.00;101192.75;5093364;28;20051;-79
2021/09/26 01:38:07;;;;;;;0.20;0.20;;;;;;;14.07;100.00;101192.47;5103177;28;20534;-80
2021/09/26 01:40:46;;;;;;;0.45;0.30;;;;;;;14.07;100.00;101189.72;5092930;28;20396;-79
2021/09/26 01:43:26;;;;;;;0.30;0.30;;;;;;;14.10;100.00;101191.88;5099275;28;20047;-78
2021/09/26 01:46:05;;;;;;;0.28;0.28;;;;;;;14.13;100.00;101193.22;5110756;28;20051;-78
2021/09/26 01:48:39;;;;;;;0.35;0.35;;;;;;;14.17;100.00;101193.44;5116392;27;20054;-78
2021/09/26 01:51:08;;;;;;;0.30;0.30;;;;;;;14.24;100.00;101200.22;5105128;28;20053;-79
2021/09/26 01:53:43;;;;;;;0.30;0.30;;;;;;;14.19;100.00;101197.53;5099499;28;20055;-79
2021/09/26 01:56:17;;;;;;;0.32;0.28;;;;;;;14.19;100.00;101200.25;5100742;28;20073;-81
2021/09/26 01:58:51;;;;;;;0.25;0.25;;;;;;;14.21;100.00;101202.69;5091865;28;20047;-78
2021/09/26 02:01:26;;;;;;;0.25;0.25;;;;;;;14.18;100.00;101204.09;5101348;28;20043;-78
2021/09/26 02:03:56;;;;;;;0.40;0.40;;;;;;;14.23;100.00;101205.97;5103146;28;20056;-78
2021/09/26 02:06:30;;;;;;;0.38;0.30;;;;;;;14.24;100.00;101204.88;5108534;28;20039;-78
2021/09/26 02:09:04;;;;;;;0.50;0.30;;;;;;;14.23;100.00;101201.31;5102249;28;20047;-78
2021/09/26 02:11:38;;;;;;;0.30;0.30;;;;;;;14.26;100.00;101195.25;5105392;28;20048;-79
2021/09/26 02:14:08;;;;;;;0.30;0.30;;;;;;;14.20;100.00;101204.63;5107647;28;20043;-78
2021/09/26 02:16:43;;;;;;;0.43;0.30;;;;;;;14.13;100.00;101195.97;5096158;28;20036;-79
2021/09/26 02:19:18;;;;;;;0.20;0.20;;;;;;;14.11;100.00;101206.38;5104263;28;20052;-78
2021/09/26 02:21:51;;;;;;;0.30;0.30;;;;;;;14.07;100.00;101208.88;5094022;28;20495;-79
2021/09/26 02:24:26;;;;;;;0.88;0.30;;;;;;;14.03;100.00;101204.28;5103848;28;20051;-78
2021/09/26 02:26:59;;;;;;;0.32;0.32;;;;;;;14.03;100.00;101202.38;5103505;28;20047;-78
2021/09/26 02:29:33;;;;;;;0.30;0.30;;;;;;;14.01;100.00;101198.28;5097685;28;20498;-78
2021/09/26 02:32:08;;;;;;;0.40;0.40;;;;;;;14.04;100.00;101198.50;5101958;28;20048;-78
2021/09/26 02:34:41;;;;;;;0.30;0.30;;;;;;;14.06;100.00;101198.25;5096360;28;20044;-78
2021/09/26 02:37:14;;;;;;;0.30;0.30;;;;;;;14.03;100.00;101196.06;5101402;28;20043;-80
2021/09/26 02:39:43;;;;;;;0.30;0.30;;;;;;;14.04;100.00;101198.50;5115812;28;20060;-80
2021/09/26 02:42:25;;;;;;;0.30;0.30;;;;;;;14.07;100.00;101194.38;5092182;28;20519;-79
2021/09/26 02:45:05;;;;;;;0.30;0.30;;;;;;;14.04;100.00;101198.50;5090466;28;20675;-80
2021/09/26 02:47:40;;;;;;;0.30;0.30;;;;;;;14.07;100.00;101188.91;5107266;28;20062;-80
2021/09/26 02:50:13;;;;;;;0.30;0.30;;;;;;;14.08;100.00;101190.53;5119881;28;20040;-80
2021/09/26 02:52:48;;;;;;;0.47;0.28;;;;;;;14.07;100.00;101186.16;5093642;28;20050;-81
2021/09/26 02:55:23;;;;;;;0.38;0.30;;;;;;;14.05;100.00;101182.91;5096309;28;20044;-81
2021/09/26 02:57:56;;;;;;;0.30;0.30;;;;;;;14.07;100.00;101189.72;5100775;28;20052;-80
2021/09/26 03:00:32;;;;;;;0.30;0.30;;;;;;;14.09;100.00;101189.44;5093846;28;20404;-80
2021/09/26 03:03:09;;;;;;;0.40;0.40;;;;;;;14.03;100.00;101182.38;5091859;28;20059;-80
2021/09/26 03:05:38;;;;;;;0.55;0.50;;;;;;;14.10;100.00;101189.16;5096405;28;20054;-80
2021/09/26 03:08:12;;;;;;;0.30;0.30;;;;;;;14.11;100.00;101185.31;5103423;28;20055;-80
2021/09/26 03:10:49;;;;;;;0.25;0.25;;;;;;;14.13;100.00;101182.28;5096315;28;20521;-80
2021/09/26 03:13:22;;;;;;;0.20;0.20;;;;;;;14.08;100.00;101179.59;5097917;28;20629;-81
2021/09/26 03:15:56;;;;;;;0.60;0.40;;;;;;;14.11;100.00;101181.75;5092350;28;20396;-79
2021/09/26 03:18:30;;;;;;;0.40;0.40;;;;;;;14.12;100.00;101184.19;5094941;28;20055;-80
2021/09/26 03:21:03;;;;;;;0.30;0.30;;;;;;;14.13;100.00;101185.00;5092264;28;20040;-80
2021/09/26 03:23:37;;;;;;;0.40;0.40;;;;;;;14.17;100.00;101185.22;5101179;28;20047;-80
2021/09/26 03:26:11;;;;;;;0.30;0.30;;;;;;;14.19;100.00;101186.56;5097678;28;20035;-80
2021/09/26 03:28:44;;;;;;;0.30;0.30;;;;;;;14.18;100.00;101179.47;5101680;28;20059;-80
2021/09/26 03:31:19;;;;;;;0.50;0.50;;;;;;;14.14;100.00;101172.97;5102073;28;20418;-81
2021/09/26 03:33:55;;;;;;;0.30;0.30;;;;;;;14.18;100.00;101173.97;5100200;28;20467;-82
2021/09/26 03:36:28;;;;;;;0.30;0.30;;;;;;;14.14;100.00;101161.19;5097076;28;20044;-80
2021/09/26 03:39:01;;;;;;;0.40;0.40;;;;;;;14.19;100.00;101172.06;5101595;28;20040;-81
2021/09/26 03:41:29;;;;;;;0.35;0.30;;;;;;;14.18;100.00;101165.78;5107520;28;20056;-80
2021/09/26 03:44:02;;;;;;;0.30;0.30;;;;;;;14.17;100.00;101166.06;5099343;28;20048;-79
2021/09/26 03:46:35;;;;;;;0.40;0.30;;;;;;;14.20;100.00;101169.03;5105245;28;20052;-81
2021/09/26 03:49:10;;;;;;;0.40;0.40;;;;;;;14.21;100.00;101170.69;5101396;28;20063;-80
2021/09/26 03:51:43;;;;;;;0.30;0.30;;;;;;;14.20;100.00;101163.56;5099442;28;20047;-80
2021/09/26 03:54:11;;;;;;;0.30;0.30;;;;;;;14.21;100.00;101165.22;5101686;28;20044;-81
2021/09/26 03:56:45;;;;;;;0.30;0.30;;;;;;;14.22;100.00;101166.00;5098564;28;20044;-80
2021/09/26 03:59:19;;;;;;;0.25;0.25;;;;;;;14.21;100.00;101158.91;5103178;28;20464;-80
2021/09/26 04:01:52;;;;;;;0.45;0.30;;;;;;;14.21;100.00;101161.63;5108469;28;20043;-80
2021/09/26 04:04:27;;;;;;;0.30;0.30;;;;;;;14.21;100.00;101164.38;5106709;28;20496;-81
2021/09/26 04:07:00;;;;;;;0.57;0.40;;;;;;;14.21;100.00;101159.72;5107951;28;20407;-80
2021/09/26 04:09:33;;;;;;;0.25;0.25;;;;;;;14.19;100.00;101148.25;5101523;28;20048;-80
2021/09/26 04:12:07;;;;;;;0.40;0.40;;;;;;;14.21;100.00;101146.03;5103488;28;20048;-80
2021/09/26 04:14:40;;;;;;;0.30;0.30;;;;;;;14.21;100.00;101153.44;5097088;28;20051;-80
2021/09/26 04:17:09;;;;;;;0.30;0.30;;;;;;;14.21;100.00;101150.69;5099664;28;20052;-80
2021/09/26 04:19:43;;;;;;;0.40;0.40;;;;;;;14.18;100.00;101143.88;5098394;28;20079;-80
2021/09/26 04:22:11;;;;;;;0.45;0.40;;;;;;;14.18;100.00;101141.13;5102928;28;20048;-80
2021/09/26 04:24:45;;;;;;;0.40;0.40;;;;;;;14.17;100.00;101155.94;5107308;28;20070;-80
2021/09/26 04:27:18;;;;;;;0.40;0.40;;;;;;;14.18;100.00;101152.09;5105029;28;20495;-80
2021/09/26 04:29:52;;;;;;;0.30;0.30;;;;;;;14.17;100.00;101155.94;5098087;28;20051;-79
2021/09/26 04:32:25;;;;;;;0.50;0.40;;;;;;;14.15;100.00;101151.88;5108662;28;20051;-80
2021/09/26 04:35:00;;;;;;;0.30;0.30;;;;;;;14.16;100.00;101164.47;5105342;28;20043;-79
2021/09/26 04:37:33;;;;;;;0.63;0.50;;;;;;;14.14;100.00;101155.72;5096648;28;20051;-79
2021/09/26 04:40:08;;;;;;;0.30;0.30;;;;;;;14.14;100.00;101155.72;5091112;28;20059;-79
2021/09/26 04:42:41;;;;;;;0.45;0.40;;;;;;;14.13;100.00;101152.16;5098460;28;20400;-80
2021/09/26 04:45:14;;;;;;;0.30;0.30;;;;;;;14.16;100.00;101161.72;5110055;28;20048;-79
2021/09/26 04:47:47;;;;;;;0.30;0.30;;;;;;;14.11;100.00;101149.72;5097927;28;20695;-80
2021/09/26 04:50:22;;;;;;;0.30;0.30;;;;;;;14.17;100.00;101164.16;5095745;28;20051;-80
2021/09/26 04:52:55;;;;;;;0.32;0.30;;;;;;;14.17;100.00;101163.34;5099499;28;20070;-80
2021/09/26 04:55:28;;;;;;;0.40;0.40;;;;;;;14.18;100.00;101162.22;5092152;28;20063;-80
2021/09/26 04:58:03;;;;;;;0.40;0.35;;;;;;;14.17;100.00;101155.94;5092437;28;20036;-80
2021/09/26 05:00:37;;;;;;;0.20;0.20;;;;;;;14.17;100.00;101144.16;5092480;28;20050;-80
2021/09/26 05:03:10;;;;;;;0.30;0.30;;;;;;;14.16;100.00;101148.03;5100979;27;20048;-81
2021/09/26 05:05:40;;;;;;;0.55;0.40;;;;;;;14.14;100.00;101153.81;5096621;28;20504;-81
2021/09/26 05:08:13;;;;;;;0.20;0.20;;;;;;;14.15;100.00;101154.59;5094565;28;20044;-81
2021/09/26 05:10:46;;;;;;;0.40;0.40;;;;;;;14.17;100.00;101152.38;5102352;28;20047;-81
2021/09/26 05:13:20;;;;;;;0.55;0.40;;;;;;;14.15;100.00;101155.41;5099631;28;20062;-81
2021/09/26 05:15:53;;;;;;;0.30;0.30;;;;;;;14.12;100.00;101147.78;5092592;28;20048;-80
2021/09/26 05:18:26;;;;;;;0.30;0.30;;;;;;;14.17;100.00;101161.44;5093199;28;20051;-80
2021/09/26 05:21:00;;;;;;;0.20;0.20;;;;;;;14.17;100.00;101152.38;5095064;28;20486;-80
2021/09/26 05:23:35;;;;;;;0.32;0.32;;;;;;;14.17;100.00;101141.44;5094955;28;20040;-80
2021/09/26 05:26:08;;;;;;;0.43;0.30;;;;;;;14.19;100.00;101152.91;5094649;28;20063;-80
2021/09/26 05:28:41;;;;;;;0.45;0.40;;;;;;;14.15;100.00;101146.41;5099667;28;20395;-80
2021/09/26 05:31:15;;;;;;;0.30;0.30;;;;;;;14.19;100.00;101156.47;5097639;28;20043;-81
2021/09/26 05:33:48;;;;;;;0.38;0.38;;;;;;;14.22;100.00;101160.53;5105091;28;20518;-81
2021/09/26 05:36:22;;;;;;;0.30;0.30;;;;;;;14.21;100.00;101158.91;5097867;28;20044;-80
2021/09/26 05:38:56;;;;;;;0.35;0.35;;;;;;;14.18;100.00;101154.81;5095035;28;20039;-81
2021/09/26 05:41:29;;;;;;;0.20;0.20;;;;;;;14.19;100.00;101150.19;5096658;28;20043;-80
2021/09/26 05:43:57;;;;;;;0.30;0.30;;;;;;;14.23;100.00;101149.28;5096483;28;20051;-80
2021/09/26 05:46:30;;;;;;;0.20;0.20;;;;;;;14.25;100.00;101146.25;5094474;28;20384;-81
2021/09/26 05:49:04;;;;;;;0.30;0.30;;;;;;;14.25;100.00;101149.81;5098283;28;20048;-80
2021/09/26 05:51:38;;;;;;;0.30;0.30;;;;;;;14.28;100.00;101148.44;5098126;28;20047;-79
2021/09/26 05:54:06;;;;;;;0.30;0.30;;;;;;;14.29;100.00;101148.13;5097055;28;20051;-80
2021/09/26 05:56:39;;;;;;;0.47;0.32;;;;;;;14.32;100.00;101154.13;5103179;28;20056;-81
2021/09/26 05:59:15;;;;;;;0.30;0.30;;;;;;;14.33;100.00;101148.34;5093384;28;20052;-81
2021/09/26 06:01:48;;;;;;;0.30;0.30;;;;;;;14.34;100.00;101143.69;5090180;28;20791;-80
2021/09/26 06:04:16;;;;;;;0.43;0.40;;;;;;;14.36;100.00;101145.03;5089310;28;20492;-79
2021/09/26 06:06:50;;;;;;;0.30;0.30;;;;;;;14.40;100.00;101150.72;5101255;28;20062;-79
2021/09/26 06:09:24;;;;;;;0.30;0.30;;;;;;;14.42;100.00;101156.75;5097480;28;20066;-81
2021/09/26 06:11:57;;;;;;;0.35;0.35;;;;;;;14.43;100.00;101156.44;5094457;28;20419;-80
2021/09/26 06:14:25;;;;;;;0.40;0.40;;;;;;;14.44;100.00;101146.28;5098795;28;20056;-81
2021/09/26 06:16:58;;;;;;;0.32;0.30;;;;;;;14.49;100.00;101151.72;5100328;28;20040;-79
2021/09/26 06:19:32;;;;;;;0.35;0.35;;;;;;;14.52;100.00;101155.78;5091943;28;20051;-81
2021/09/26 06:22:07;;;;;;;0.40;0.38;;;;;;;14.53;100.00;101151.91;5096020;28;20052;-79
2021/09/26 06:24:35;;;;;;;0.40;0.40;;;;;;;14.58;100.00;101160.06;5093850;28;20048;-78
2021/09/26 06:27:08;;;;;;;0.35;0.35;;;;;;;14.55;100.00;101153.25;5098646;28;20064;-81
2021/09/26 06:29:37;;;;;;;0.25;0.25;;;;;;;14.62;100.00;101159.22;5090113;28;20051;-79
2021/09/26 06:32:10;;;;;;;0.32;0.32;;;;;;;14.65;100.00;101160.53;5100933;28;20063;-80
2021/09/26 06:34:43;;;;;;;0.65;0.30;;;;;;;14.69;100.00;101166.25;5093837;28;20055;-80
2021/09/26 06:37:13;;;;;;;0.38;0.38;;;;;;;14.72;100.00;101157.44;5090576;28;20048;-80
2021/09/26 06:39:46;;;;;;;0.30;0.30;;;;;;;14.77;100.00;101168.34;5092425;28;20055;-81
2021/09/26 06:42:14;;;;;;;0.35;0.35;;;;;;;14.82;100.00;101161.94;5095230;28;20052;-79
2021/09/26 06:44:47;;;;;;;0.60;0.40;;;;;;;14.86;100.00;101152.84;5095581;28;20044;-79
2021/09/26 06:47:21;;;;;;;0.40;0.40;;;;;;;14.91;100.00;101160.97;5094347;28;20044;-80
2021/09/26 06:49:49;;;;;;;0.30;0.30;;;;;;;14.94;100.00;101159.56;5104689;28;20050;-80
2021/09/26 06:52:18;;;;;;;0.30;0.30;;;;;;;14.97;100.00;101161.75;5094393;28;20051;-79
2021/09/26 06:54:52;;;;;;;0.30;0.30;;;;;;;15.02;100.00;101167.13;5092799;28;20055;-80
2021/09/26 06:57:25;;;;;;;0.30;0.30;;;;;;;15.03;100.00;101146.84;5095906;28;20047;-80
2021/09/26 06:59:58;;;;;;;0.40;0.40;;;;;;;15.07;100.00;101156.09;5097948;28;20682;-81
2021/09/26 07:02:27;;;;;;;0.30;0.30;;;;;;;15.11;100.00;101153.56;5096380;28;20039;-80
2021/09/26 07:05:00;;;;;;;0.30;0.30;;;;;;;15.14;100.00;101147.50;5102523;28;20050;-80
2021/09/26 07:07:34;;;;;;;0.40;0.40;;;;;;;15.13;100.00;101143.94;5095527;28;20431;-79
2021/09/26 07:10:08;;;;;;;0.38;0.38;;;;;;;15.20;100.00;101153.69;5099547;28;20146;-80
2021/09/26 07:12:41;;;;;;;0.35;0.35;;;;;;;15.21;100.00;101153.41;5107177;28;20054;-80
2021/09/26 07:15:15;;;;;;;0.30;0.30;;;;;;;15.28;100.00;101161.25;5104519;28;20040;-81
2021/09/26 07:17:48;;;;;;;0.30;0.30;;;;;;;15.30;100.00;101159.00;5100529;28;20044;-80
2021/09/26 07:20:22;;;;;;;0.30;0.30;;;;;;;15.33;100.00;101152.94;5104066;28;20373;-80
2021/09/26 07:22:57;;;;;;;0.30;0.30;;;;;;;15.34;100.00;101149.06;5099760;28;20052;-80
2021/09/26 07:25:25;;;;;;;0.30;0.30;;;;;;;15.43;100.00;101154.69;5098612;28;20043;-80
2021/09/26 07:27:59;;;;;;;0.30;0.30;;;;;;;15.43;100.00;101154.69;5098886;28;20043;-81
2021/09/26 07:30:33;;;;;;;0.30;0.30;;;;;;;15.51;100.00;101161.38;5095882;28;20044;-80
2021/09/26 07:33:06;;;;;;;0.35;0.35;;;;;;;15.47;100.00;101145.53;5087930;28;20048;-79
2021/09/26 07:35:45;;;;;;;0.30;0.30;;;;;;;15.56;100.00;101150.34;5092204;28;20047;-82
2021/09/26 07:38:19;;;;;;;0.30;0.30;;;;;;;15.59;100.00;101152.47;5111345;27;20063;-82
2021/09/26 07:40:48;;;;;;;0.32;0.32;;;;;;;15.66;100.00;101155.66;5094192;28;20043;-80
2021/09/26 07:43:21;;;;;;;0.40;0.40;;;;;;;15.78;100.00;101146.91;5092123;28;20043;-82
2021/09/26 07:45:55;;;;;;;0.30;0.30;;;;;;;15.84;100.00;101143.00;5096883;28;20050;-80
2021/09/26 07:48:29;;;;;;;0.30;0.30;;;;;;;15.89;100.00;101148.38;5098994;28;20051;-84
2021/09/26 07:51:02;;;;;;;0.30;0.30;;;;;;;15.97;100.00;101139.41;5098392;28;20062;-81
2021/09/26 07:53:38;;;;;;;0.30;0.30;;;;;;;16.03;100.00;101140.13;5094330;28;20584;-82
2021/09/26 07:56:11;;;;;;;0.20;0.20;;;;;;;16.06;100.00;101142.28;5091728;28;20047;-82
2021/09/26 07:58:45;;;;;;;0.32;0.25;;;;;;;16.27;100.00;101139.91;5095213;28;21416;-82
2021/09/26 08:01:18;;;;;;;0.20;0.20;;;;;;;16.26;100.00;101141.03;5089393;27;20062;-81
2021/09/26 08:03:51;;;;;;;0.30;0.30;;;;;;;16.24;100.00;101136.97;5091248;28;20540;-80
2021/09/26 08:06:24;;;;;;;0.20;0.20;;;;;;;16.62;100.00;101129.25;5097737;28;20051;-82
2021/09/26 08:08:59;;;;;;;0.20;0.20;;;;;;;16.74;100.00;101128.72;5112048;27;20467;-83
2021/09/26 08:11:32;;;;;;;0.30;0.30;;;;;;;16.65;100.00;101130.56;5091744;28;20051;-80
2021/09/26 08:14:05;;;;;;;0.20;0.20;;;;;;;16.53;100.00;101114.66;5096089;28;20062;-82
2021/09/26 08:16:34;;;;;;;0.30;0.30;;;;;;;16.57;100.00;101125.81;5091001;28;20725;-82
2021/09/26 08:19:08;;;;;;;0.22;0.22;;;;;;;17.04;99.78;101111.81;5094319;28;20060;-80
2021/09/26 08:21:41;;;;;;;0.20;0.20;;;;;;;16.86;100.00;101121.84;5087824;28;20473;-81
2021/09/26 08:24:16;;;;;;;0.20;0.20;;;;;;;16.86;100.00;101113.59;5091463;28;20047;-83
2021/09/26 08:26:49;;;;;;;0.52;0.20;;;;;;;17.08;98.11;101112.81;5091132;28;20164;-81
2021/09/26 08:29:22;;;;;;;0.20;0.20;;;;;;;16.97;99.11;101123.25;5090019;28;20062;-80
2021/09/26 08:31:56;;;;;;;0.40;0.20;;;;;;;16.94;99.52;101124.69;5087738;28;20676;-80
2021/09/26 08:34:30;;;;;;;0.20;0.20;;;;;;;16.99;99.19;101116.31;5085527;28;20071;-80
2021/09/26 08:36:59;;;;;;;0.20;0.20;;;;;;;17.08;99.18;101121.06;5089105;28;20047;-80
2021/09/26 08:39:34;;;;;;;0.30;0.30;;;;;;;17.11;98.86;101109.44;5089471;28;20137;-80
2021/09/26 08:42:10;;;;;;;0.20;0.20;;;;;;;17.22;99.06;101121.00;5085718;28;20047;-80
2021/09/26 08:44:39;;;;;;;0.20;0.20;;;;;;;17.27;98.67;101118.91;5107128;27;20066;-81
2021/09/26 08:47:13;;;;;;;0.20;0.20;;;;;;;17.21;99.00;101122.13;5088680;28;20056;-79
2021/09/26 08:49:46;;;;;;;0.20;0.20;;;;;;;17.59;95.11;101096.91;5091564;27;20056;-81
2021/09/26 08:52:21;;;;;;;0.30;0.20;;;;;;;17.46;95.98;101104.16;5091643;28;20094;-81
2021/09/26 08:54:56;;;;;;;0.30;0.20;;;;;;;17.68;94.30;101104.06;5089141;28;20047;-83
2021/09/26 08:57:25;;;;;;;0.15;0.15;;;;;;;17.47;95.87;101101.09;5090410;28;20047;-80
2021/09/26 09:00:00;;;;;;;0.20;0.20;;;;;;;17.77;94.05;101101.38;5092342;28;20044;-79
2021/09/26 09:02:33;;;;;;;0.20;0.20;;;;;;;17.58;95.32;101103.53;5094741;28;20067;-80
2021/09/26 09:05:26;;;;;;;0.20;0.20;;;;;;;17.52;95.07;101091.88;5094655;28;20408;-80
2021/09/26 09:08:04;;;;;;;0.20;0.20;;;;;;;18.01;91.40;101081.69;5094054;28;20048;-81
2021/09/26 09:10:41;;;;;;;0.30;0.30;;;;;;;17.84;94.40;101106.41;5094266;27;20043;-82
2021/09/26 09:13:18;;;;;;;0.20;0.20;;;;;;;17.75;94.77;101108.31;5090924;28;20055;-81
2021/09/26 09:15:53;;;;;;;0.20;0.20;;;;;;;18.02;92.51;101096.28;5097224;28;20071;-81
2021/09/26 09:18:37;;;;;;;0.20;0.20;;;;;;;17.87;93.54;101097.53;5091425;28;20051;-81
2021/09/26 09:21:21;;;;;;;0.20;0.20;;;;;;;17.93;94.39;101096.25;5093697;28;20055;-81
2021/09/26 09:24:14;;;;;;;0.20;0.20;;;;;;;18.04;92.65;101088.53;5092616;28;20063;-80
2021/09/26 09:26:50;;;;;;;0.20;0.20;;;;;;;18.00;93.41;101087.53;5092205;28;20094;-81
2021/09/26 09:29:19;;;;;;;0.25;0.22;;;;;;;18.08;93.46;101085.94;5096305;28;20708;-81
2021/09/26 09:31:56;;;;;;;0.20;0.20;;;;;;;18.01;93.17;101084.47;5093146;28;20040;-82
2021/09/26 09:34:32;;;;;;;0.20;0.20;;;;;;;18.35;90.56;101084.81;5090382;28;20495;-83
2021/09/26 09:37:13;;;;;;;0.10;0.10;;;;;;;18.19;91.65;101092.75;5088854;28;20048;-81
2021/09/26 09:40:06;;;;;;;0.25;0.17;;;;;;;18.59;89.70;101091.81;5090171;28;20669;-82
2021/09/26 09:42:43;;;;;;;0.20;0.20;;;;;;;18.45;90.90;101091.97;5094529;28;20048;-81
2021/09/26 09:45:22;;;;;;;0.20;0.20;;;;;;;18.41;91.99;101088.22;5091219;28;20048;-80
2021/09/26 09:48:12;;;;;;;0.20;0.20;;;;;;;18.63;90.18;101090.03;5098201;28;20051;-82
2021/09/26 09:50:58;;;;;;;0.20;0.20;;;;;;;18.57;90.01;101077.56;5089509;28;20055;-80
2021/09/26 09:53:35;;;;;;;0.13;0.13;;;;;;;18.94;87.52;101078.03;5092062;28;20864;-82
2021/09/26 09:56:17;;;;;;;0.20;0.20;;;;;;;19.39;81.77;101069.31;5099221;27;20052;-81
2021/09/26 09:58:55;;;;;;;0.40;0.20;;;;;;;19.07;86.42;101074.28;5093503;28;21197;-80
2021/09/26 10:01:30;;;;;;;0.20;0.20;;;;;;;19.01;86.35;101068.09;5089122;28;20051;-82
2021/09/26 10:04:04;;;;;;;0.20;0.20;;;;;;;19.08;85.23;101066.81;5096659;28;20408;-82
2021/09/26 10:06:40;;;;;;;0.20;0.20;;;;;;;19.03;85.03;101065.06;5092005;28;20055;-81
2021/09/26 10:09:24;;;;;;;0.68;0.30;;;;;;;19.01;86.63;101061.78;5096919;28;20059;-81
2021/09/26 10:12:00;;;;;;;0.38;0.15;;;;;;;19.09;85.66;101060.97;5092794;28;20058;-82
2021/09/26 10:14:37;;;;;;;0.10;0.10;;;;;;;19.35;83.67;101058.13;5091472;28;20054;-81
2021/09/26 10:17:10;;;;;;;0.20;0.20;;;;;;;19.28;85.88;101059.75;5091851;28;20047;-81
2021/09/26 10:19:44;;;;;;;0.20;0.20;;;;;;;19.38;84.70;101059.41;5090168;28;20478;-80
2021/09/26 10:22:18;;;;;;;0.20;0.20;;;;;;;19.43;82.28;101053.72;5089440;28;20063;-80
2021/09/26 10:24:55;;;;;;;0.40;0.20;;;;;;;19.45;82.90;101051.44;5094953;28;20514;-80
2021/09/26 10:27:28;;;;;;;0.13;0.13;;;;;;;19.41;81.42;101047.72;5099558;28;20450;-82
2021/09/26 10:30:04;;;;;;;0.20;0.20;;;;;;;19.38;81.13;101040.09;5109332;28;20059;-81
2021/09/26 10:32:33;;;;;;;0.22;0.22;;;;;;;19.30;82.04;101030.69;5094205;28;20064;-81
2021/09/26 10:35:08;;;;;;;0.20;0.20;;;;;;;19.33;81.57;101038.34;5099172;28;20051;-81
2021/09/26 10:37:42;;;;;;;0.20;0.20;;;;;;;19.43;82.93;101039.09;5099889;28;20628;-82
2021/09/26 10:40:16;;;;;;;0.20;0.20;;;;;;;19.37;83.03;101041.22;5102905;28;20044;-81
2021/09/26 10:42:44;;;;;;;0.63;0.20;;;;;;;19.47;83.38;101032.59;5098442;28;20059;-81
2021/09/26 10:45:26;;;;;;;0.20;0.20;;;;;;;19.49;81.64;101041.34;5095098;28;20141;-83
2021/09/26 10:47:59;;;;;;;0.30;0.20;;;;;;;19.56;82.99;101046.34;5096477;28;20052;-82
2021/09/26 10:50:35;;;;;;;0.13;0.13;;;;;;;19.60;83.44;101046.50;5096105;28;20054;-82
2021/09/26 10:53:10;;;;;;;0.20;0.20;;;;;;;19.74;79.89;101040.75;5100188;28;20054;-82
2021/09/26 10:55:44;;;;;;;0.30;0.20;;;;;;;19.84;81.97;101038.41;5096335;28;20052;-81
2021/09/26 10:58:19;;;;;;;0.20;0.20;;;;;;;19.83;79.75;101033.22;5096452;28;20048;-83
2021/09/26 11:00:57;;;;;;;0.20;0.20;;;;;;;19.77;77.86;101035.34;5097475;28;20047;-81
2021/09/26 11:03:39;;;;;;;0.98;0.20;;;;;;;19.68;80.50;101029.09;5093209;28;21294;-81
2021/09/26 11:06:23;;;;;;;0.20;0.20;;;;;;;19.83;79.10;101023.00;5095996;28;20530;-81
2021/09/26 11:08:58;;;;;;;0.20;0.20;;;;;;;19.78;79.53;101003.03;5096929;28;20051;-83
2021/09/26 11:11:33;;;;;;;0.20;0.20;;;;;;;19.84;79.97;101026.56;5095721;28;20408;-82
2021/09/26 11:14:08;;;;;;;0.20;0.20;;;;;;;19.98;78.90;101027.16;5099923;28;20048;-81
2021/09/26 11:17:01;;;;;;;0.28;0.22;;;;;;;19.80;77.95;101020.91;5101576;28;20059;-83
2021/09/26 11:19:34;;;;;;;0.10;0.10;;;;;;;19.91;79.76;101020.53;5097704;28;20071;-82
2021/09/26 11:22:05;;;;;;;0.20;0.20;;;;;;;19.92;79.37;101014.66;5093068;28;20056;-82
2021/09/26 11:24:57;;;;;;;0.15;0.15;;;;;;;19.89;78.94;101023.63;5097431;28;20051;-83
2021/09/26 11:27:38;;;;;;;0.20;0.20;;;;;;;19.99;76.48;101008.59;5097975;28;20059;-83
2021/09/26 11:30:16;;;;;;;0.20;0.20;;;;;;;19.92;78.20;101019.38;5097380;28;20063;-84
2021/09/26 11:33:09;;;;;;;0.10;0.10;;;;;;;19.93;78.40;101008.00;5098388;28;20052;-81
2021/09/26 11:35:42;;;;;;;0.30;0.20;;;;;;;19.86;79.40;101003.00;5097678;28;20051;-82
2021/09/26 11:38:19;;;;;;;0.20;0.20;;;;;;;20.17;75.62;100999.03;5098134;28;20063;-82
2021/09/26 11:40:56;;;;;;;0.20;0.20;;;;;;;19.98;80.38;100993.16;5094455;28;20047;-82
2021/09/26 11:43:36;;;;;;;0.17;0.17;;;;;;;20.22;75.27;100986.97;5097495;28;21717;-82
2021/09/26 11:46:22;;;;;;;0.20;0.20;;;;;;;20.31;77.74;100987.69;5097321;28;20044;-82
2021/09/26 11:49:04;;;;;;;0.20;0.20;;;;;;;20.49;71.94;100977.28;5099104;28;20052;-83
2021/09/26 11:51:37;;;;;;;0.28;0.28;;;;;;;20.33;78.09;100984.63;5099826;28;20873;-82
2021/09/26 11:54:11;;;;;;;0.20;0.20;;;;;;;20.59;73.46;100972.47;5093292;28;20051;-82